createdAt,value
2023-02-18T00:00:14.292Z,8.00
2023-02-18T00:02:42.985Z,8.18
2023-02-18T00:05:11.478Z,8.08
2023-02-18T00:07:41.247Z,7.88
2023-02-18T00:10:12.745Z,8.06
2023-02-18T00:12:41.230Z,8.11
2023-02-18T00:15:11.912Z,8.08
2023-02-18T00:17:40.207Z,8.02
2023-02-18T00:20:09.707Z,7.92
2023-02-18T00:22:38.046Z,8.02
2023-02-18T00:25:06.770Z,8.04
2023-02-18T00:27:35.051Z,8.05
2023-02-18T00:30:04.263Z,7.83
2023-02-18T00:32:36.186Z,7.95
2023-02-18T00:35:05.667Z,7.93
2023-02-18T00:37:35.380Z,7.99
2023-02-18T00:40:03.944Z,8.00
2023-02-18T00:42:32.295Z,8.04
2023-02-18T00:45:01.686Z,7.99
2023-02-18T00:47:30.006Z,7.91
2023-02-18T00:49:59.925Z,7.84
2023-02-18T00:52:28.323Z,8.01
2023-02-18T00:54:56.587Z,8.03
2023-02-18T00:57:25.976Z,8.19
2023-02-18T00:59:54.359Z,8.04
2023-02-18T01:02:22.717Z,8.03
2023-02-18T01:04:51.210Z,8.04
2023-02-18T01:07:20.944Z,7.78
2023-02-18T01:09:49.372Z,7.67
2023-02-18T01:12:18.568Z,7.84
2023-02-18T01:14:46.937Z,7.78
2023-02-18T01:17:15.282Z,8.15
2023-02-18T01:19:43.572Z,8.10
2023-02-18T01:22:11.935Z,8.13
2023-02-18T01:24:41.710Z,8.16
2023-02-18T01:27:10.057Z,8.07
2023-02-18T01:29:38.438Z,8.01
2023-02-18T01:32:07.386Z,8.01
2023-02-18T01:34:36.031Z,7.95
2023-02-18T01:37:04.411Z,7.95
2023-02-18T01:39:32.788Z,8.06
2023-02-18T01:42:02.646Z,7.98
2023-02-18T01:44:31.290Z,7.98
2023-02-18T01:46:59.702Z,8.10
2023-02-18T01:49:31.264Z,8.12
2023-02-18T01:52:04.146Z,7.91
2023-02-18T01:54:35.509Z,8.21
2023-02-18T01:57:08.491Z,8.07
2023-02-18T01:59:40.861Z,7.90
2023-02-18T02:02:12.948Z,7.90
2023-02-18T02:04:41.892Z,8.02
2023-02-18T02:07:10.895Z,8.10
2023-02-18T02:09:41.224Z,7.93
2023-02-18T02:12:29.999Z,7.93
2023-02-18T02:15:11.336Z,7.73
2023-02-18T02:17:51.591Z,7.82
2023-02-18T02:21:06.970Z,7.90
2023-02-18T02:23:58.760Z,7.97
2023-02-18T02:27:11.801Z,7.88
2023-02-18T02:30:17.032Z,7.86
2023-02-18T02:33:23.863Z,7.74
2023-02-18T02:35:58.683Z,7.71
2023-02-18T02:38:33.941Z,7.87
2023-02-18T02:41:17.406Z,7.92
2023-02-18T02:43:55.198Z,7.58
2023-02-18T02:46:30.110Z,7.57
2023-02-18T02:49:09.652Z,7.90
2023-02-18T02:51:48.631Z,7.90
2023-02-18T02:54:20.043Z,7.74
2023-02-18T02:56:48.806Z,7.77
2023-02-18T02:59:24.356Z,7.89
2023-02-18T03:02:10.347Z,7.83
2023-02-18T03:05:09.999Z,7.71
2023-02-18T03:08:02.920Z,7.95
2023-02-18T03:10:49.511Z,7.76
2023-02-18T03:13:27.267Z,7.85
2023-02-18T03:15:58.610Z,7.89
2023-02-18T03:18:35.939Z,7.92
2023-02-18T03:21:10.835Z,7.65
2023-02-18T03:23:45.922Z,7.79
2023-02-18T03:26:17.454Z,7.80
2023-02-18T03:28:47.329Z,7.85
2023-02-18T03:31:21.316Z,7.98
2023-02-18T03:33:54.290Z,7.88
2023-02-18T03:36:23.902Z,7.96
2023-02-18T03:39:00.514Z,7.94
2023-02-18T03:41:28.922Z,7.92
2023-02-18T03:44:04.083Z,7.79
2023-02-18T03:46:33.536Z,7.90
2023-02-18T03:49:02.117Z,7.92
2023-02-18T03:51:30.643Z,8.01
2023-02-18T03:54:00.472Z,7.99
2023-02-18T03:56:28.906Z,7.92
2023-02-18T03:58:57.209Z,7.94
2023-02-18T04:01:25.593Z,7.94
2023-02-18T04:03:55.629Z,7.97
2023-02-18T04:06:24.014Z,7.99
2023-02-18T04:08:52.398Z,8.25
2023-02-18T04:11:22.194Z,8.00
2023-02-18T04:13:50.478Z,7.93
2023-02-18T04:16:19.021Z,7.74
2023-02-18T04:18:47.460Z,7.92
2023-02-18T04:21:15.802Z,7.93
2023-02-18T04:23:44.069Z,7.88
2023-02-18T04:26:12.543Z,7.88
2023-02-18T04:28:42.280Z,7.87
2023-02-18T04:31:11.929Z,7.94
2023-02-18T04:33:40.373Z,7.88
2023-02-18T04:36:09.925Z,7.95
2023-02-18T04:38:38.894Z,7.94
2023-02-18T04:41:08.279Z,7.93
2023-02-18T04:43:36.691Z,7.87
2023-02-18T04:46:06.966Z,7.69
2023-02-18T04:48:36.284Z,7.70
2023-02-18T04:51:05.298Z,7.74
2023-02-18T04:53:33.611Z,7.79
2023-02-18T04:56:02.555Z,7.82
2023-02-18T04:58:30.962Z,7.94
2023-02-18T05:01:01.178Z,7.79
2023-02-18T05:03:31.743Z,7.64
2023-02-18T05:06:00.329Z,7.74
2023-02-18T05:08:28.679Z,7.71
2023-02-18T05:10:56.988Z,7.63
2023-02-18T05:13:25.412Z,7.80
2023-02-18T05:15:55.555Z,7.24
2023-02-18T05:18:23.889Z,7.67
2023-02-18T05:20:53.611Z,7.63
2023-02-18T05:23:21.988Z,7.73
2023-02-18T05:25:50.446Z,7.63
2023-02-18T05:28:18.790Z,6.92
2023-02-18T05:30:47.258Z,7.34
2023-02-18T05:33:15.724Z,7.69
2023-02-18T05:35:44.141Z,7.68
2023-02-18T05:38:14.213Z,7.58
2023-02-18T05:40:42.610Z,7.52
2023-02-18T05:43:10.916Z,7.42
2023-02-18T05:45:39.307Z,7.43
2023-02-18T05:48:07.719Z,7.80
2023-02-18T05:50:36.464Z,7.76
2023-02-18T05:53:04.837Z,7.54
2023-02-18T05:55:37.880Z,7.47
2023-02-18T05:58:06.387Z,7.43
2023-02-18T06:00:34.738Z,7.40
2023-02-18T06:03:03.200Z,7.12
2023-02-18T06:05:31.508Z,7.64
2023-02-18T06:07:59.916Z,7.62
2023-02-18T06:10:28.382Z,7.43
2023-02-18T06:12:58.276Z,7.39
2023-02-18T06:15:26.519Z,7.64
2023-02-18T06:17:55.807Z,7.67
2023-02-18T06:20:24.143Z,7.40
2023-02-18T06:22:52.641Z,7.44
2023-02-18T06:25:20.961Z,7.28
2023-02-18T06:27:49.314Z,7.69
2023-02-18T06:30:19.504Z,7.41
2023-02-18T06:32:47.918Z,7.34
2023-02-18T06:35:16.314Z,7.40
2023-02-18T06:37:45.444Z,7.47
2023-02-18T06:40:14.326Z,7.45
2023-02-18T06:42:42.630Z,7.01
2023-02-18T06:45:11.424Z,7.61
2023-02-18T06:47:41.208Z,7.53
2023-02-18T06:50:10.361Z,6.84
2023-02-18T06:52:38.845Z,7.19
2023-02-18T06:55:08.123Z,7.33
2023-02-18T06:57:36.704Z,7.37
2023-02-18T07:00:06.379Z,7.41
2023-02-18T07:02:34.800Z,7.46
2023-02-18T07:05:04.649Z,7.51
2023-02-18T07:07:33.092Z,7.43
2023-02-18T07:10:01.462Z,7.51
2023-02-18T07:12:29.840Z,7.50
2023-02-18T07:14:58.513Z,7.52
2023-02-18T07:17:27.127Z,7.57
2023-02-18T07:19:55.937Z,7.49
2023-02-18T07:22:25.791Z,7.38
2023-02-18T07:24:54.145Z,7.47
2023-02-18T07:27:23.443Z,7.62
2023-02-18T07:29:51.844Z,7.65
2023-02-18T07:32:21.989Z,7.69
2023-02-18T07:34:50.383Z,7.76
2023-02-18T07:37:18.711Z,7.88
2023-02-18T07:39:48.575Z,8.05
2023-02-18T07:42:16.965Z,7.86
2023-02-18T07:44:46.764Z,7.84
2023-02-18T07:47:17.363Z,7.80
2023-02-18T07:49:45.791Z,7.90
2023-02-18T07:52:14.252Z,7.59
2023-02-18T07:54:42.658Z,7.85
2023-02-18T07:57:12.529Z,7.92
2023-02-18T07:59:41.056Z,7.87
2023-02-18T08:02:16.784Z,7.94
2023-02-18T08:04:45.321Z,7.96
2023-02-18T08:07:15.393Z,7.85
2023-02-18T08:09:44.103Z,7.63
2023-02-18T08:12:13.966Z,7.89
2023-02-18T08:14:42.577Z,8.02
2023-02-18T08:17:10.979Z,7.94
2023-02-18T08:19:39.324Z,8.05
2023-02-18T08:22:07.739Z,8.01
2023-02-18T08:24:36.172Z,7.83
2023-02-18T08:27:04.805Z,7.98
2023-02-18T08:29:34.497Z,8.08
2023-02-18T08:32:03.247Z,8.17
2023-02-18T08:34:31.652Z,7.97
2023-02-18T08:37:00.110Z,7.94
2023-02-18T08:39:28.354Z,8.05
2023-02-18T08:41:58.316Z,8.06
2023-02-18T08:44:26.695Z,8.00
2023-02-18T08:46:56.529Z,7.97
2023-02-18T08:49:24.900Z,8.06
2023-02-18T08:51:53.321Z,8.20
2023-02-18T08:54:21.693Z,7.95
2023-02-18T08:56:50.298Z,8.16
2023-02-18T08:59:18.626Z,7.77
2023-02-18T09:01:47.088Z,8.18
2023-02-18T09:04:17.252Z,8.30
2023-02-18T09:06:46.962Z,8.28
2023-02-18T09:09:15.397Z,7.53
2023-02-18T09:11:44.643Z,8.33
2023-02-18T09:14:13.534Z,8.13
2023-02-18T09:16:42.432Z,8.40
2023-02-18T09:19:11.064Z,8.31
2023-02-18T09:21:40.970Z,8.10
2023-02-18T09:24:09.896Z,8.20
2023-02-18T09:26:39.725Z,8.14
2023-02-18T09:29:08.437Z,8.32
2023-02-18T09:31:38.202Z,8.30
2023-02-18T09:34:07.443Z,8.45
2023-02-18T09:36:35.950Z,8.28
2023-02-18T09:39:05.769Z,8.22
2023-02-18T09:41:40.834Z,8.10
2023-02-18T09:44:14.796Z,7.85
2023-02-18T09:46:50.722Z,8.25
2023-02-18T09:49:22.867Z,8.27
2023-02-18T09:51:51.640Z,8.26
2023-02-18T09:54:22.536Z,8.10
2023-02-18T09:56:52.109Z,8.05
2023-02-18T09:59:23.471Z,8.09
2023-02-18T10:01:54.697Z,8.21
2023-02-18T10:04:30.494Z,8.20
2023-02-18T10:06:59.894Z,8.02
2023-02-18T10:09:35.180Z,8.02
2023-02-18T10:12:14.758Z,8.07
2023-02-18T10:14:44.673Z,7.82
2023-02-18T10:17:16.650Z,7.86
2023-02-18T10:19:47.540Z,8.14
2023-02-18T10:22:17.754Z,8.01
2023-02-18T10:24:51.732Z,7.91
2023-02-18T10:27:28.710Z,7.92
2023-02-18T10:30:00.986Z,7.93
2023-02-18T10:32:34.244Z,7.74
2023-02-18T10:35:15.442Z,7.64
2023-02-18T10:37:58.844Z,7.60
2023-02-18T10:40:37.076Z,7.59
2023-02-18T10:43:15.032Z,7.67
2023-02-18T10:45:50.322Z,7.58
2023-02-18T10:48:37.626Z,7.55
2023-02-18T10:51:16.881Z,7.50
2023-02-18T10:53:48.075Z,7.58
2023-02-18T10:59:20.667Z,7.58
2023-02-18T11:01:57.362Z,7.76
2023-02-18T11:04:29.707Z,7.75
2023-02-18T11:07:05.332Z,7.79
2023-02-18T11:09:41.557Z,7.73
2023-02-18T11:12:19.120Z,7.82
2023-02-18T11:14:51.544Z,7.90
2023-02-18T11:17:28.200Z,8.04
2023-02-18T11:19:58.445Z,7.85
2023-02-18T11:22:30.318Z,8.00
2023-02-18T11:25:00.362Z,7.97
2023-02-18T11:27:33.921Z,7.83
2023-02-18T11:30:07.168Z,7.95
2023-02-18T11:32:38.324Z,8.02
2023-02-18T11:35:07.406Z,7.89
2023-02-18T11:37:37.811Z,8.04
2023-02-18T11:40:07.475Z,8.08
2023-02-18T11:42:35.918Z,8.29
2023-02-18T11:45:06.065Z,8.15
2023-02-18T11:47:36.138Z,7.89
2023-02-18T11:50:16.936Z,8.03
2023-02-18T11:52:47.221Z,8.10
2023-02-18T11:55:21.583Z,8.24
2023-02-18T11:57:56.528Z,8.23
2023-02-18T12:00:40.305Z,8.44
2023-02-18T12:03:16.894Z,8.40
2023-02-18T12:05:47.033Z,8.34
2023-02-18T12:08:21.821Z,8.43
2023-02-18T12:10:53.198Z,8.17
2023-02-18T12:13:27.777Z,8.57
2023-02-18T12:16:09.994Z,8.56
2023-02-18T12:18:54.676Z,8.66
2023-02-18T12:21:47.093Z,8.89
2023-02-18T12:24:30.264Z,8.66
2023-02-18T12:27:08.503Z,8.82
2023-02-18T12:29:58.265Z,8.86
2023-02-18T12:32:37.759Z,8.75
2023-02-18T12:35:23.281Z,8.73
2023-02-18T12:38:17.649Z,8.74
2023-02-18T12:40:53.668Z,8.51
2023-02-18T12:43:34.913Z,8.39
2023-02-18T12:46:43.144Z,8.49
2023-02-18T12:49:22.862Z,8.77
2023-02-18T12:52:03.925Z,9.01
2023-02-18T12:54:47.305Z,8.69
2023-02-18T12:57:37.140Z,8.58
2023-02-18T13:00:31.105Z,8.61
2023-02-18T13:03:37.205Z,8.49
2023-02-18T13:06:17.296Z,8.31
2023-02-18T13:08:54.674Z,8.31
2023-02-18T13:11:34.170Z,8.36
2023-02-18T13:14:09.316Z,8.41
2023-02-18T13:16:39.693Z,8.55
2023-02-18T13:19:19.390Z,8.39
2023-02-18T13:21:52.174Z,8.33
2023-02-18T13:24:28.887Z,8.11
2023-02-18T13:27:05.283Z,8.29
2023-02-18T13:29:40.802Z,8.23
2023-02-18T13:32:19.083Z,8.17
2023-02-18T13:34:52.710Z,8.26
2023-02-18T13:37:33.668Z,7.67
2023-02-18T13:40:03.185Z,7.82
2023-02-18T13:42:37.627Z,7.93
2023-02-18T13:45:22.527Z,7.92
2023-02-18T13:47:51.626Z,7.84
2023-02-18T13:50:43.019Z,7.79
2023-02-18T13:53:23.392Z,7.83
2023-02-18T13:56:02.443Z,8.31
2023-02-18T13:58:39.210Z,7.95
2023-02-18T14:01:15.271Z,7.87
2023-02-18T14:04:01.312Z,7.85
2023-02-18T14:06:32.571Z,7.94
2023-02-18T14:09:34.319Z,7.84
2023-02-18T14:12:25.718Z,7.78
2023-02-18T14:14:54.182Z,7.65
2023-02-18T14:17:43.780Z,7.53
2023-02-18T14:20:44.493Z,7.61
2023-02-18T14:23:41.396Z,7.67
2023-02-18T14:26:19.423Z,7.59
2023-02-18T14:28:56.099Z,7.70
2023-02-18T14:31:46.979Z,7.58
2023-02-18T14:34:47.443Z,7.54
2023-02-18T14:37:44.194Z,7.53
2023-02-18T14:40:25.918Z,7.61
2023-02-18T14:43:02.730Z,7.48
2023-02-18T14:45:51.782Z,7.52
2023-02-18T14:48:40.698Z,7.34
2023-02-18T14:51:10.161Z,7.58
2023-02-18T14:53:44.675Z,7.34
2023-02-18T14:56:16.790Z,7.36
2023-02-18T14:58:48.919Z,7.47
2023-02-18T15:01:21.449Z,7.64
2023-02-18T15:03:51.499Z,7.42
2023-02-18T15:06:25.851Z,7.49
2023-02-18T15:08:54.162Z,7.58
2023-02-18T15:11:25.500Z,7.39
2023-02-18T15:13:54.579Z,7.24
2023-02-18T15:16:31.837Z,7.60
2023-02-18T15:19:04.055Z,7.57
2023-02-18T15:21:33.831Z,7.35
2023-02-18T15:24:08.109Z,7.27
2023-02-18T15:26:38.650Z,7.31
2023-02-18T15:29:07.807Z,7.16
2023-02-18T15:31:40.929Z,7.27
2023-02-18T15:34:34.323Z,7.33
2023-02-18T15:37:03.959Z,6.99
2023-02-18T15:39:33.790Z,7.00
2023-02-18T15:42:04.386Z,7.13
2023-02-18T15:44:35.406Z,7.12
2023-02-18T15:47:08.889Z,6.80
2023-02-18T15:49:39.932Z,7.23
2023-02-18T15:52:10.033Z,7.10
2023-02-18T15:54:42.553Z,7.15
2023-02-18T15:57:16.420Z,6.89
2023-02-18T15:59:47.490Z,6.92
2023-02-18T16:02:24.077Z,6.92
2023-02-18T16:04:56.235Z,6.97
2023-02-18T16:07:27.458Z,6.90
2023-02-18T16:10:21.650Z,6.90
2023-02-18T16:12:54.163Z,6.84
2023-02-18T16:15:27.954Z,6.97
2023-02-18T16:17:59.268Z,6.73
2023-02-18T16:20:32.027Z,6.88
2023-02-18T16:23:05.387Z,6.97
2023-02-18T16:25:43.336Z,6.98
2023-02-18T16:28:16.566Z,7.03
2023-02-18T16:30:46.701Z,6.88
2023-02-18T16:33:16.595Z,6.88
2023-02-18T16:35:50.366Z,6.83
2023-02-18T16:38:21.278Z,6.88
2023-02-18T16:40:50.180Z,6.84
2023-02-18T16:43:20.541Z,7.03
2023-02-18T16:45:51.724Z,6.94
2023-02-18T16:48:28.139Z,7.10
2023-02-18T16:50:56.999Z,6.89
2023-02-18T16:53:25.468Z,6.91
2023-02-18T16:55:53.767Z,6.88
2023-02-18T16:58:22.120Z,6.90
2023-02-18T17:00:52.170Z,7.02
2023-02-18T17:03:22.718Z,7.01
2023-02-18T17:05:51.129Z,6.95
2023-02-18T17:08:23.358Z,7.02
2023-02-18T17:10:53.259Z,6.93
2023-02-18T17:13:23.672Z,7.09
2023-02-18T17:15:53.995Z,7.12
2023-02-18T17:18:25.137Z,7.10
2023-02-18T17:20:54.799Z,7.02
2023-02-18T17:23:25.235Z,7.16
2023-02-18T17:25:54.569Z,7.30
2023-02-18T17:28:23.321Z,7.19
2023-02-18T17:30:57.834Z,7.16
2023-02-18T17:33:27.677Z,7.05
2023-02-18T17:35:56.032Z,6.86
2023-02-18T17:38:24.496Z,7.11
2023-02-18T17:40:52.920Z,7.16
2023-02-18T17:43:23.871Z,7.13
2023-02-18T17:45:54.335Z,6.77
2023-02-18T17:48:23.636Z,7.07
2023-02-18T17:50:53.877Z,7.09
2023-02-18T17:53:22.720Z,7.15
2023-02-18T17:55:51.679Z,7.15
2023-02-18T17:58:20.229Z,7.22
2023-02-18T18:00:51.759Z,7.20
2023-02-18T18:03:20.464Z,7.16
2023-02-18T18:05:52.121Z,7.18
2023-02-18T18:08:22.228Z,7.19
2023-02-18T18:10:52.687Z,7.21
2023-02-18T18:13:23.649Z,7.24
2023-02-18T18:15:53.344Z,7.20
2023-02-18T18:18:22.458Z,7.21
2023-02-18T18:20:53.599Z,7.08
2023-02-18T18:23:24.023Z,6.47
2023-02-18T18:25:54.371Z,6.94
2023-02-18T18:28:22.748Z,7.28
2023-02-18T18:30:53.634Z,7.25
2023-02-18T18:33:25.736Z,7.42
2023-02-18T18:35:56.080Z,7.42
2023-02-18T18:38:27.496Z,7.00
2023-02-18T18:40:56.939Z,7.20
2023-02-18T18:43:26.973Z,6.99
2023-02-18T18:45:56.104Z,7.09
2023-02-18T18:48:25.535Z,7.49
2023-02-18T18:50:55.035Z,7.22
2023-02-18T18:53:26.273Z,7.15
2023-02-18T18:55:56.158Z,7.22
2023-02-18T18:58:24.796Z,7.27
2023-02-18T19:00:56.234Z,7.12
2023-02-18T19:03:25.740Z,7.18
2023-02-18T19:05:54.814Z,7.13
2023-02-18T19:08:23.934Z,7.19
2023-02-18T19:10:55.039Z,7.01
2023-02-18T19:13:24.672Z,7.28
2023-02-18T19:16:01.453Z,7.31
2023-02-18T19:18:30.195Z,7.12
2023-02-18T19:20:58.488Z,7.21
2023-02-18T19:23:26.971Z,7.17
2023-02-18T19:25:56.767Z,7.04
2023-02-18T19:28:25.213Z,7.09
2023-02-18T19:30:53.602Z,7.14
2023-02-18T19:33:22.053Z,7.17
2023-02-18T19:35:50.699Z,7.30
2023-02-18T19:38:20.835Z,7.35
2023-02-18T19:40:49.196Z,7.01
2023-02-18T19:43:19.028Z,7.12
2023-02-18T19:45:48.473Z,7.31
2023-02-18T19:48:17.427Z,7.22
2023-02-18T19:50:45.899Z,7.22
2023-02-18T19:53:14.277Z,7.11
2023-02-18T19:55:42.962Z,7.07
2023-02-18T19:58:11.226Z,7.16
2023-02-18T20:00:43.804Z,7.09
2023-02-18T20:03:12.370Z,7.29
2023-02-18T20:05:40.740Z,7.15
2023-02-18T20:08:09.281Z,7.29
2023-02-18T20:10:37.815Z,7.12
2023-02-18T20:13:11.387Z,7.09
2023-02-18T20:15:44.248Z,7.07
2023-02-18T20:18:12.581Z,7.04
2023-02-18T20:20:40.954Z,7.22
2023-02-18T20:23:09.308Z,7.26
2023-02-18T20:25:40.103Z,7.30
2023-02-18T20:28:08.477Z,7.19
2023-02-18T20:30:37.006Z,7.04
2023-02-18T20:33:06.839Z,7.17
2023-02-18T20:35:35.202Z,7.22
2023-02-18T20:38:03.839Z,7.05
2023-02-18T20:40:32.132Z,7.03
2023-02-18T20:43:00.754Z,6.95
2023-02-18T20:45:29.152Z,7.09
2023-02-18T20:47:57.488Z,6.93
2023-02-18T20:50:27.252Z,6.92
2023-02-18T20:52:55.608Z,7.05
2023-02-18T20:55:24.277Z,6.83
2023-02-18T20:57:52.675Z,6.97
2023-02-18T21:00:21.071Z,6.77
2023-02-18T21:02:49.582Z,6.91
2023-02-18T21:05:19.691Z,6.60
2023-02-18T21:07:49.763Z,7.18
2023-02-18T21:10:18.348Z,7.12
2023-02-18T21:12:46.694Z,7.02
2023-02-18T21:15:15.142Z,6.97
2023-02-18T21:17:43.501Z,6.97
2023-02-18T21:20:12.208Z,6.93
2023-02-18T21:22:40.559Z,6.90
2023-02-18T21:25:10.618Z,6.90
2023-02-18T21:27:39.011Z,6.95
2023-02-18T21:30:09.364Z,6.94
2023-02-18T21:32:37.791Z,6.97
2023-02-18T21:35:06.428Z,7.06
2023-02-18T21:37:36.001Z,6.98
2023-02-18T21:40:04.356Z,7.09
2023-02-18T21:42:34.769Z,7.11
2023-02-18T21:45:03.168Z,6.94
2023-02-18T21:47:31.607Z,6.87
2023-02-18T21:49:59.848Z,6.92
2023-02-18T21:52:28.344Z,6.95
2023-02-18T21:54:56.753Z,7.00
2023-02-18T21:57:25.597Z,7.00
2023-02-18T21:59:55.955Z,7.05
2023-02-18T22:02:26.615Z,7.00
2023-02-18T22:04:55.237Z,6.91
2023-02-18T22:07:26.272Z,6.78
2023-02-18T22:09:55.749Z,7.00
2023-02-18T22:12:25.352Z,7.00
2023-02-18T22:14:55.368Z,6.99
2023-02-18T22:17:24.062Z,7.01
2023-02-18T22:19:52.380Z,7.10
2023-02-18T22:22:20.728Z,7.10
2023-02-18T22:24:49.391Z,7.05
2023-02-18T22:27:19.566Z,6.95
2023-02-18T22:29:48.489Z,7.05
2023-02-18T22:32:18.340Z,7.01
2023-02-18T22:34:46.852Z,6.99
2023-02-18T22:37:15.536Z,6.99
2023-02-18T22:39:43.884Z,7.02
2023-02-18T22:42:12.225Z,7.06
2023-02-18T22:44:40.625Z,7.03
2023-02-18T22:47:09.529Z,7.08
2023-02-18T22:49:39.250Z,7.08
2023-02-18T22:52:07.548Z,6.96
2023-02-18T22:54:36.084Z,7.00
2023-02-18T22:57:04.590Z,7.03
2023-02-18T22:59:33.036Z,7.04
2023-02-18T23:02:01.569Z,7.05
2023-02-18T23:04:29.872Z,7.05
2023-02-18T23:07:00.913Z,7.09
2023-02-18T23:09:29.276Z,6.98
2023-02-18T23:11:59.265Z,6.94
2023-02-18T23:14:30.690Z,7.03
2023-02-18T23:17:17.803Z,7.03
2023-02-18T23:19:48.442Z,7.11
2023-02-18T23:22:20.175Z,6.98
2023-02-18T23:24:49.749Z,7.04
2023-02-18T23:27:18.750Z,6.87
2023-02-18T23:29:47.306Z,7.01
2023-02-18T23:32:16.078Z,6.95
2023-02-18T23:34:44.397Z,6.92
2023-02-18T23:37:12.909Z,6.90
2023-02-18T23:39:45.235Z,7.07
2023-02-18T23:42:15.882Z,6.95
2023-02-18T23:44:44.219Z,6.92
2023-02-18T23:47:12.572Z,6.93
2023-02-18T23:49:40.964Z,6.94
2023-02-18T23:52:09.498Z,6.77
2023-02-18T23:54:37.783Z,6.58
2023-02-18T23:57:07.638Z,6.95
2023-02-18T23:59:36.306Z,6.95
